createdAt,value
2017-10-05T00:01:53.734Z,11.71
2017-10-05T00:04:21.479Z,11.75
2017-10-05T00:06:49.285Z,11.68
2017-10-05T00:09:16.855Z,11.82
2017-10-05T00:11:44.455Z,11.88
2017-10-05T00:14:11.980Z,11.88
2017-10-05T00:16:39.576Z,11.69
2017-10-05T00:19:07.138Z,11.72
2017-10-05T00:21:34.674Z,11.73
2017-10-05T00:24:02.250Z,11.76
2017-10-05T00:26:29.790Z,11.68
2017-10-05T00:28:57.597Z,11.57
2017-10-05T00:31:25.167Z,11.57
2017-10-05T00:33:52.683Z,11.60
2017-10-05T00:36:20.249Z,11.52
2017-10-05T00:38:48.140Z,11.42
2017-10-05T00:41:15.664Z,11.73
2017-10-05T00:43:43.392Z,11.58
2017-10-05T00:46:10.950Z,11.69
2017-10-05T00:48:38.733Z,11.41
2017-10-05T00:51:06.274Z,11.41
2017-10-05T00:53:34.162Z,11.38
2017-10-05T00:56:01.799Z,11.27
2017-10-05T00:58:29.357Z,11.20
2017-10-05T01:00:56.970Z,11.26
2017-10-05T01:03:24.775Z,11.32
2017-10-05T01:05:52.328Z,11.16
2017-10-05T01:08:19.900Z,11.11
2017-10-05T01:10:47.501Z,11.18
2017-10-05T01:13:15.390Z,11.20
2017-10-05T01:15:42.967Z,11.08
2017-10-05T01:18:10.512Z,11.02
2017-10-05T01:20:38.396Z,11.02
2017-10-05T01:23:06.262Z,10.97
2017-10-05T01:25:33.777Z,11.02
2017-10-05T01:28:01.567Z,11.03
2017-10-05T01:30:29.124Z,11.09
2017-10-05T01:32:56.664Z,10.96
2017-10-05T01:35:24.203Z,10.82
2017-10-05T01:37:51.759Z,10.99
2017-10-05T01:40:19.510Z,10.86
2017-10-05T01:42:47.069Z,10.76
2017-10-05T01:45:14.747Z,10.78
2017-10-05T01:47:42.282Z,10.89
2017-10-05T01:50:10.141Z,10.82
2017-10-05T01:52:38.015Z,10.91
2017-10-05T01:55:05.554Z,10.74
2017-10-05T01:57:33.299Z,10.65
2017-10-05T02:00:00.878Z,10.55
2017-10-05T02:02:28.768Z,10.41
2017-10-05T02:04:56.323Z,10.47
2017-10-05T02:07:29.181Z,10.47
2017-10-05T02:09:57.061Z,10.60
2017-10-05T02:12:28.275Z,10.63
2017-10-05T02:14:56.756Z,10.72
2017-10-05T02:17:24.283Z,10.76
2017-10-05T02:19:51.798Z,10.72
2017-10-05T02:22:19.581Z,10.91
2017-10-05T02:24:47.111Z,10.65
2017-10-05T02:27:14.853Z,10.69
2017-10-05T02:29:42.449Z,10.65
2017-10-05T02:32:10.021Z,10.57
2017-10-05T02:34:37.553Z,10.51
2017-10-05T02:37:05.324Z,10.37
2017-10-05T02:39:32.928Z,10.40
2017-10-05T02:42:00.471Z,10.52
2017-10-05T02:44:28.034Z,10.50
2017-10-05T02:46:55.584Z,10.45
2017-10-05T02:49:23.350Z,10.66
2017-10-05T02:51:50.904Z,10.79
2017-10-05T02:54:18.482Z,10.20
2017-10-05T02:56:45.991Z,10.37
2017-10-05T02:59:13.519Z,10.45
2017-10-05T03:01:41.080Z,10.70
2017-10-05T03:04:08.618Z,10.27
2017-10-05T03:06:36.142Z,10.13
2017-10-05T03:09:04.226Z,10.37
2017-10-05T03:11:31.745Z,10.27
2017-10-05T03:13:59.571Z,10.08
2017-10-05T03:16:27.151Z,10.39
2017-10-05T03:18:54.667Z,10.46
2017-10-05T03:21:22.192Z,10.65
2017-10-05T03:23:49.737Z,10.62
2017-10-05T03:26:17.284Z,10.62
2017-10-05T03:28:44.809Z,10.45
2017-10-05T03:31:12.387Z,10.42
2017-10-05T03:33:39.912Z,10.25
2017-10-05T03:36:07.500Z,10.23
2017-10-05T03:38:35.059Z,10.31
2017-10-05T03:41:02.634Z,10.24
2017-10-05T03:43:30.190Z,10.29
2017-10-05T03:45:58.044Z,10.37
2017-10-05T03:48:25.580Z,10.28
2017-10-05T03:50:53.125Z,10.24
2017-10-05T03:53:20.687Z,10.26
2017-10-05T03:55:48.295Z,10.25
2017-10-05T03:58:16.817Z,10.46
2017-10-05T04:00:44.437Z,10.60
2017-10-05T04:03:11.963Z,10.41
2017-10-05T04:05:39.485Z,10.21
2017-10-05T04:08:07.086Z,10.18
2017-10-05T04:10:34.624Z,10.17
2017-10-05T04:13:02.141Z,10.16
2017-10-05T04:15:29.922Z,10.22
2017-10-05T04:17:58.224Z,12.72
2017-10-05T04:20:26.533Z,12.83
2017-10-05T04:22:54.107Z,11.39
2017-10-05T04:25:21.651Z,11.01
2017-10-05T04:27:50.165Z,11.38
2017-10-05T04:30:17.757Z,10.76
2017-10-05T04:32:45.286Z,10.72
2017-10-05T04:35:13.030Z,10.51
2017-10-05T04:37:41.368Z,10.48
2017-10-05T04:40:09.391Z,10.35
2017-10-05T04:42:36.929Z,10.39
2017-10-05T04:45:05.329Z,10.44
2017-10-05T04:47:32.841Z,10.41
2017-10-05T04:50:00.378Z,10.41
2017-10-05T04:52:29.055Z,10.40
2017-10-05T04:54:56.896Z,10.65
2017-10-05T04:57:24.419Z,10.72
2017-10-05T04:59:51.999Z,10.62
2017-10-05T05:02:19.555Z,10.49
2017-10-05T05:04:47.310Z,10.72
2017-10-05T05:07:15.064Z,10.45
2017-10-05T05:09:42.646Z,11.03
2017-10-05T05:12:10.203Z,12.56
2017-10-05T05:14:37.727Z,11.96
2017-10-05T05:17:06.344Z,11.21
2017-10-05T05:19:33.921Z,11.43
2017-10-05T05:22:01.469Z,10.80
2017-10-05T05:24:29.039Z,10.80
2017-10-05T05:26:56.595Z,10.79
2017-10-05T05:29:25.338Z,10.71
2017-10-05T05:31:53.058Z,10.77
2017-10-05T05:34:20.616Z,11.01
2017-10-05T05:36:48.359Z,11.13
2017-10-05T05:39:15.949Z,11.79
2017-10-05T05:41:43.490Z,11.39
2017-10-05T05:44:11.294Z,11.67
2017-10-05T05:46:38.845Z,11.86
2017-10-05T05:49:06.378Z,12.30
2017-10-05T05:51:33.908Z,12.87
2017-10-05T05:54:01.510Z,13.36
2017-10-05T05:56:29.422Z,14.82
2017-10-05T05:58:57.208Z,15.44
2017-10-05T06:01:25.310Z,15.70
2017-10-05T06:03:53.164Z,16.53
2017-10-05T06:06:20.698Z,16.87
2017-10-05T06:08:48.278Z,16.81
2017-10-05T06:11:15.799Z,17.76
2017-10-05T06:13:43.628Z,18.18
2017-10-05T06:16:11.198Z,18.43
2017-10-05T06:18:38.721Z,18.81
2017-10-05T06:21:06.470Z,18.99
2017-10-05T06:23:34.037Z,19.30
2017-10-05T06:26:01.558Z,19.55
2017-10-05T06:28:29.083Z,19.84
2017-10-05T06:30:56.659Z,20.29
2017-10-05T06:33:24.216Z,20.66
2017-10-05T06:35:51.730Z,20.86
2017-10-05T06:38:19.267Z,21.15
2017-10-05T06:40:47.135Z,21.52
2017-10-05T06:43:14.696Z,21.63
2017-10-05T06:45:42.470Z,22.12
2017-10-05T06:48:10.017Z,21.75
2017-10-05T06:50:37.816Z,21.96
2017-10-05T06:53:05.371Z,22.56
2017-10-05T06:55:32.893Z,22.38
2017-10-05T06:58:00.410Z,22.76
2017-10-05T07:00:27.963Z,22.72
2017-10-05T07:02:55.893Z,22.72
2017-10-05T07:05:23.593Z,22.99
2017-10-05T07:07:51.460Z,23.10
2017-10-05T07:10:19.314Z,23.52
2017-10-05T07:12:46.856Z,23.84
2017-10-05T07:15:14.664Z,24.09
2017-10-05T07:17:42.517Z,23.63
2017-10-05T07:20:10.079Z,23.12
2017-10-05T07:22:37.904Z,22.95
2017-10-05T07:25:05.693Z,22.93
2017-10-05T07:27:33.222Z,23.81
2017-10-05T07:30:00.810Z,24.42
2017-10-05T07:32:28.383Z,24.24
2017-10-05T07:34:55.913Z,24.21
2017-10-05T07:37:23.432Z,24.50
2017-10-05T07:39:50.994Z,24.65
2017-10-05T07:42:18.840Z,24.87
2017-10-05T07:44:46.657Z,25.05
2017-10-05T07:47:14.555Z,24.82
2017-10-05T07:49:42.310Z,24.19
2017-10-05T07:52:10.076Z,25.08
2017-10-05T07:54:37.661Z,24.66
2017-10-05T07:57:05.886Z,25.02
2017-10-05T07:59:33.690Z,24.78
2017-10-05T08:02:02.001Z,25.06
2017-10-05T08:04:29.611Z,24.95
2017-10-05T08:06:57.384Z,24.98
2017-10-05T08:09:25.209Z,25.47
2017-10-05T08:11:52.780Z,25.32
2017-10-05T08:14:20.326Z,25.68
2017-10-05T08:16:48.148Z,25.31
2017-10-05T08:19:15.891Z,24.53
2017-10-05T08:21:43.494Z,24.58
2017-10-05T08:24:12.229Z,25.59
2017-10-05T08:26:40.243Z,26.26
2017-10-05T08:29:07.992Z,25.74
2017-10-05T08:31:36.514Z,25.37
2017-10-05T08:34:04.046Z,25.00
2017-10-05T08:36:31.566Z,25.54
2017-10-05T08:38:59.122Z,26.00
2017-10-05T08:41:26.661Z,27.12
2017-10-05T08:43:54.176Z,25.80
2017-10-05T08:46:22.598Z,25.61
2017-10-05T08:48:50.383Z,25.88
2017-10-05T08:51:18.369Z,24.59
2017-10-05T08:53:45.950Z,25.37
2017-10-05T08:56:13.806Z,25.97
2017-10-05T08:58:42.351Z,26.45
2017-10-05T09:01:09.911Z,26.72
2017-10-05T09:03:37.829Z,26.66
2017-10-05T09:06:05.372Z,26.54
2017-10-05T09:08:32.955Z,25.75
2017-10-05T09:11:00.473Z,25.88
2017-10-05T09:13:28.019Z,26.41
2017-10-05T09:15:55.798Z,25.10
2017-10-05T09:18:23.376Z,26.15
2017-10-05T09:20:50.901Z,26.53
2017-10-05T09:23:18.476Z,26.59
2017-10-05T09:25:46.040Z,27.18
2017-10-05T09:28:13.553Z,27.75
2017-10-05T09:30:41.152Z,27.69
2017-10-05T09:33:08.670Z,27.05
2017-10-05T09:35:36.234Z,26.04
2017-10-05T09:38:03.803Z,26.17
2017-10-05T09:40:32.447Z,27.22
2017-10-05T09:43:00.241Z,28.00
2017-10-05T09:45:27.794Z,25.49
2017-10-05T09:47:55.345Z,25.99
2017-10-05T09:50:22.855Z,26.65
2017-10-05T09:52:50.654Z,26.47
2017-10-05T09:55:18.220Z,26.54
2017-10-05T09:57:45.758Z,26.90
2017-10-05T10:00:14.165Z,26.97
2017-10-05T10:02:41.705Z,27.09
2017-10-05T10:05:09.446Z,27.23
2017-10-05T10:07:37.041Z,27.60
2017-10-05T10:10:04.635Z,27.72
2017-10-05T10:12:32.454Z,28.18
2017-10-05T10:15:00.027Z,28.36
2017-10-05T10:17:27.546Z,28.00
2017-10-05T10:19:55.339Z,28.31
2017-10-05T10:22:24.272Z,28.40
2017-10-05T10:24:52.133Z,28.13
2017-10-05T10:27:19.655Z,28.02
2017-10-05T10:29:48.020Z,28.24
2017-10-05T10:32:15.556Z,28.18
2017-10-05T10:34:43.347Z,28.27
2017-10-05T10:37:10.905Z,28.48
2017-10-05T10:39:38.474Z,28.46
2017-10-05T10:42:05.987Z,27.48
2017-10-05T10:44:33.493Z,27.31
2017-10-05T10:47:01.053Z,27.24
2017-10-05T10:49:28.571Z,27.31
2017-10-05T10:51:56.389Z,27.06
2017-10-05T10:54:23.953Z,26.71
2017-10-05T10:56:51.466Z,26.93
2017-10-05T10:59:19.101Z,26.86
2017-10-05T11:01:46.695Z,26.90
2017-10-05T11:04:14.852Z,26.88
2017-10-05T11:06:42.370Z,26.53
2017-10-05T11:09:09.973Z,26.63
2017-10-05T11:11:37.720Z,27.04
2017-10-05T11:14:05.232Z,27.31
2017-10-05T11:16:32.775Z,26.76
2017-10-05T11:19:00.284Z,26.97
2017-10-05T11:21:27.826Z,27.15
2017-10-05T11:23:55.594Z,26.77
2017-10-05T11:26:23.093Z,26.83
2017-10-05T11:28:50.604Z,26.94
2017-10-05T11:31:18.179Z,26.74
2017-10-05T11:33:47.798Z,26.44
2017-10-05T11:36:15.569Z,26.66
2017-10-05T11:38:43.120Z,26.80
2017-10-05T11:41:10.647Z,26.58
2017-10-05T11:43:38.170Z,26.47
2017-10-05T11:46:06.046Z,26.31
2017-10-05T11:48:33.587Z,26.24
2017-10-05T11:51:01.094Z,26.38
2017-10-05T11:53:29.443Z,26.10
2017-10-05T11:55:56.999Z,25.90
2017-10-05T11:58:24.795Z,25.62
2017-10-05T12:00:52.347Z,25.83
2017-10-05T12:03:20.086Z,25.97
2017-10-05T12:05:47.670Z,26.00
2017-10-05T12:08:15.939Z,26.12
2017-10-05T12:10:43.446Z,26.34
2017-10-05T12:13:10.959Z,26.53
2017-10-05T12:15:40.015Z,26.51
2017-10-05T12:18:08.070Z,26.78
2017-10-05T12:20:35.608Z,26.73
2017-10-05T12:23:03.481Z,26.53
2017-10-05T12:25:31.264Z,26.51
2017-10-05T12:27:58.832Z,26.33
2017-10-05T12:30:26.611Z,26.44
2017-10-05T12:32:54.346Z,26.44
2017-10-05T12:35:21.854Z,26.57
2017-10-05T12:37:49.495Z,26.47
2017-10-05T12:40:17.034Z,26.39
2017-10-05T12:42:44.557Z,26.03
2017-10-05T12:45:12.323Z,26.25
2017-10-05T12:47:40.041Z,26.47
2017-10-05T12:50:07.987Z,26.50
2017-10-05T12:52:35.608Z,26.47
2017-10-05T12:55:04.075Z,26.36
2017-10-05T12:57:32.014Z,26.19
2017-10-05T13:00:00.370Z,26.06
2017-10-05T13:02:28.520Z,25.70
2017-10-05T13:04:56.104Z,25.39
2017-10-05T13:07:23.650Z,25.47
2017-10-05T13:09:51.473Z,25.37
2017-10-05T13:12:20.374Z,25.39
2017-10-05T13:14:48.384Z,25.58
2017-10-05T13:17:16.019Z,25.80
2017-10-05T13:19:43.571Z,25.87
2017-10-05T13:22:11.224Z,25.81
2017-10-05T13:24:38.831Z,25.66
2017-10-05T13:27:06.452Z,25.65
2017-10-05T13:29:34.148Z,25.39
2017-10-05T13:32:01.801Z,24.99
2017-10-05T13:34:29.504Z,25.08
2017-10-05T13:36:57.310Z,25.11
2017-10-05T13:39:24.961Z,25.16
2017-10-05T13:41:53.283Z,25.21
2017-10-05T13:44:20.866Z,25.30
2017-10-05T13:46:48.723Z,25.29
2017-10-05T13:49:21.095Z,25.23
2017-10-05T13:51:50.255Z,25.21
2017-10-05T13:54:32.135Z,25.02
2017-10-05T13:56:59.697Z,24.96
2017-10-05T13:59:27.725Z,24.87
2017-10-05T14:01:56.066Z,24.67
2017-10-05T14:04:23.767Z,24.50
2017-10-05T14:06:51.675Z,24.20
2017-10-05T14:09:19.459Z,24.31
2017-10-05T14:11:47.235Z,24.58
2017-10-05T14:14:14.884Z,24.51
2017-10-05T14:16:42.960Z,24.63
2017-10-05T14:19:10.573Z,24.54
2017-10-05T14:21:38.142Z,24.11
2017-10-05T14:24:05.745Z,23.95
2017-10-05T14:26:33.401Z,23.96
2017-10-05T14:29:02.152Z,23.93
2017-10-05T14:31:30.589Z,23.88
2017-10-05T14:33:58.135Z,23.93
2017-10-05T14:36:26.302Z,23.98
2017-10-05T14:38:55.369Z,23.88
2017-10-05T14:41:22.911Z,23.83
2017-10-05T14:43:50.706Z,23.84
2017-10-05T14:46:18.377Z,23.95
2017-10-05T14:48:45.974Z,23.82
2017-10-05T14:51:13.534Z,23.85
2017-10-05T14:53:41.170Z,23.92
2017-10-05T14:56:08.939Z,23.89
2017-10-05T14:58:36.712Z,23.88
2017-10-05T15:01:04.419Z,23.86
2017-10-05T15:03:33.028Z,23.93
2017-10-05T15:06:00.627Z,23.84
2017-10-05T15:08:28.334Z,23.89
2017-10-05T15:10:56.688Z,23.85
2017-10-05T15:13:24.969Z,23.80
2017-10-05T15:15:53.199Z,23.75
2017-10-05T15:18:20.987Z,23.69
2017-10-05T15:20:49.155Z,23.63
2017-10-05T15:23:17.943Z,23.50
2017-10-05T15:25:46.433Z,23.49
2017-10-05T15:28:14.582Z,23.44
2017-10-05T15:30:42.517Z,23.42
2017-10-05T15:33:11.054Z,23.40
2017-10-05T15:35:39.177Z,23.31
2017-10-05T15:38:06.947Z,23.06
2017-10-05T15:40:34.725Z,22.96
2017-10-05T15:43:03.597Z,23.01
2017-10-05T15:45:32.869Z,22.93
2017-10-05T15:48:00.502Z,22.91
2017-10-05T15:50:28.861Z,22.80
2017-10-05T15:52:56.445Z,22.78
2017-10-05T15:55:24.317Z,22.74
2017-10-05T15:57:51.944Z,22.74
2017-10-05T16:00:19.789Z,22.63
2017-10-05T16:02:47.685Z,22.51
2017-10-05T16:05:15.867Z,22.50
2017-10-05T16:07:43.471Z,22.45
2017-10-05T16:10:11.256Z,22.45
2017-10-05T16:12:38.852Z,22.31
2017-10-05T16:15:06.822Z,22.27
2017-10-05T16:17:35.729Z,22.16
2017-10-05T16:20:03.647Z,22.10
2017-10-05T16:22:32.170Z,22.08
2017-10-05T16:24:59.677Z,22.05
2017-10-05T16:27:27.734Z,21.99
2017-10-05T16:29:55.389Z,21.95
2017-10-05T16:32:24.844Z,21.90
2017-10-05T16:34:53.747Z,21.82
2017-10-05T16:37:22.155Z,21.55
2017-10-05T16:39:50.742Z,21.57
2017-10-05T16:42:18.474Z,21.65
2017-10-05T16:44:46.842Z,21.53
2017-10-05T16:47:14.722Z,21.45
2017-10-05T16:49:42.400Z,21.37
2017-10-05T16:52:11.084Z,21.32
2017-10-05T16:54:38.810Z,21.13
2017-10-05T16:57:06.480Z,21.07
2017-10-05T16:59:34.336Z,20.97
2017-10-05T17:02:02.345Z,20.91
2017-10-05T17:04:30.205Z,20.78
2017-10-05T17:06:57.742Z,20.71
2017-10-05T17:09:25.399Z,20.64
2017-10-05T17:11:53.257Z,20.67
2017-10-05T17:14:21.652Z,20.68
2017-10-05T17:16:49.521Z,20.74
2017-10-05T17:19:17.311Z,20.67
2017-10-05T17:21:44.870Z,20.65
2017-10-05T17:24:13.995Z,20.63
2017-10-05T17:26:41.526Z,20.45
2017-10-05T17:29:09.892Z,20.38
2017-10-05T17:31:39.245Z,20.35
2017-10-05T17:34:07.455Z,20.30
2017-10-05T17:36:35.811Z,20.18
2017-10-05T17:39:05.381Z,20.14
2017-10-05T17:41:32.959Z,20.12
2017-10-05T17:44:00.890Z,20.17
2017-10-05T17:46:28.533Z,20.18
2017-10-05T17:48:56.420Z,20.18
2017-10-05T17:51:23.937Z,19.98
2017-10-05T17:53:51.905Z,19.81
2017-10-05T17:56:20.102Z,19.79
2017-10-05T17:58:47.854Z,19.83
2017-10-05T18:01:16.079Z,19.80
2017-10-05T18:03:44.584Z,19.83
2017-10-05T18:06:13.027Z,19.84
2017-10-05T18:08:40.747Z,19.54
2017-10-05T18:11:08.609Z,19.35
2017-10-05T18:13:37.405Z,19.34
2017-10-05T18:16:05.029Z,18.94
2017-10-05T18:18:32.580Z,18.70
2017-10-05T18:21:01.074Z,18.82
2017-10-05T18:23:29.601Z,18.91
2017-10-05T18:25:57.427Z,18.57
2017-10-05T18:28:25.013Z,18.36
2017-10-05T18:30:53.586Z,18.42
2017-10-05T18:33:21.096Z,18.35
2017-10-05T18:35:48.900Z,18.31
2017-10-05T18:38:16.505Z,18.03
2017-10-05T18:40:44.370Z,18.00
2017-10-05T18:43:11.909Z,17.96
2017-10-05T18:45:39.531Z,17.89
2017-10-05T18:48:07.129Z,18.00
2017-10-05T18:50:34.879Z,18.12
2017-10-05T18:53:02.435Z,18.12
2017-10-05T18:55:30.041Z,18.16
2017-10-05T18:57:57.574Z,17.88
2017-10-05T19:00:25.565Z,17.90
2017-10-05T19:02:55.019Z,17.96
2017-10-05T19:05:22.769Z,17.74
2017-10-05T19:07:50.380Z,17.79
2017-10-05T19:10:18.942Z,17.80
2017-10-05T19:12:46.489Z,17.81
2017-10-05T19:15:14.206Z,17.81
2017-10-05T19:17:41.747Z,17.71
2017-10-05T19:20:09.286Z,17.56
2017-10-05T19:22:37.407Z,17.60
2017-10-05T19:25:04.950Z,17.46
2017-10-05T19:27:33.447Z,17.59
2017-10-05T19:30:01.568Z,17.53
2017-10-05T19:32:30.436Z,17.47
2017-10-05T19:34:58.633Z,17.48
2017-10-05T19:37:26.930Z,17.43
2017-10-05T19:39:54.521Z,17.43
2017-10-05T19:42:22.535Z,17.57
2017-10-05T19:44:50.054Z,17.53
2017-10-05T19:47:17.666Z,17.23
2017-10-05T19:49:45.566Z,17.24
2017-10-05T19:52:13.324Z,17.19
2017-10-05T19:54:41.014Z,17.02
2017-10-05T19:57:08.620Z,16.98
2017-10-05T19:59:36.183Z,16.98
2017-10-05T20:02:04.429Z,16.88
2017-10-05T20:04:31.954Z,16.94
2017-10-05T20:06:59.499Z,16.69
2017-10-05T20:09:27.065Z,16.79
2017-10-05T20:11:54.604Z,16.91
2017-10-05T20:17:28.965Z,16.58
2017-10-05T20:20:11.712Z,16.79
2017-10-05T20:22:54.356Z,16.93
2017-10-05T20:28:28.272Z,16.79
2017-10-05T20:30:57.205Z,16.72
2017-10-05T20:33:25.188Z,16.79
2017-10-05T20:35:53.663Z,16.79
2017-10-05T20:38:21.266Z,16.86
2017-10-05T20:40:49.049Z,16.81
2017-10-05T20:43:16.578Z,16.76
2017-10-05T20:45:44.147Z,16.76
2017-10-05T20:48:11.907Z,16.65
2017-10-05T20:50:39.514Z,16.53
2017-10-05T20:53:07.108Z,16.54
2017-10-05T20:55:34.726Z,16.63
2017-10-05T20:58:02.274Z,16.60
2017-10-05T21:00:29.889Z,16.71
2017-10-05T21:02:57.440Z,16.66
2017-10-05T21:05:24.978Z,16.58
2017-10-05T21:07:52.757Z,16.41
2017-10-05T21:10:20.575Z,16.33
2017-10-05T21:12:49.482Z,16.32
2017-10-05T21:15:17.037Z,16.18
2017-10-05T21:17:44.559Z,16.35
2017-10-05T21:20:12.091Z,16.21
2017-10-05T21:22:39.656Z,16.28
2017-10-05T21:25:07.222Z,16.39
2017-10-05T21:27:34.744Z,16.37
2017-10-05T21:30:04.257Z,16.28
2017-10-05T21:32:32.067Z,16.15
2017-10-05T21:34:59.642Z,16.10
2017-10-05T21:37:27.241Z,16.06
2017-10-05T21:39:54.751Z,15.90
2017-10-05T21:42:23.019Z,15.94
2017-10-05T21:44:50.586Z,15.75
2017-10-05T21:47:18.112Z,15.70
2017-10-05T21:49:45.657Z,15.70
2017-10-05T21:52:14.129Z,15.31
2017-10-05T21:54:41.674Z,15.44
2017-10-05T21:57:09.263Z,15.39
2017-10-05T21:59:36.826Z,15.50
2017-10-05T22:02:04.364Z,15.44
2017-10-05T22:04:31.898Z,15.34
2017-10-05T22:06:59.717Z,15.18
2017-10-05T22:09:27.270Z,15.32
2017-10-05T22:11:54.797Z,15.35
2017-10-05T22:14:22.353Z,15.43
2017-10-05T22:16:49.924Z,15.28
2017-10-05T22:19:17.466Z,15.21
2017-10-05T22:21:45.298Z,15.10
2017-10-05T22:24:12.857Z,14.97
2017-10-05T22:26:40.389Z,15.03
2017-10-05T22:29:07.906Z,15.08
2017-10-05T22:31:35.488Z,15.03
2017-10-05T22:34:03.064Z,15.07
2017-10-05T22:36:30.610Z,15.07
2017-10-05T22:38:58.179Z,14.83
2017-10-05T22:41:25.693Z,15.03
2017-10-05T22:43:53.236Z,15.04
2017-10-05T22:46:21.020Z,15.02
2017-10-05T22:48:48.765Z,14.90
2017-10-05T22:51:16.290Z,14.77
2017-10-05T22:53:43.884Z,14.93
2017-10-05T22:56:11.412Z,14.89
2017-10-05T22:58:38.921Z,14.91
2017-10-05T23:01:06.513Z,14.78
2017-10-05T23:03:34.038Z,14.88
2017-10-05T23:06:01.597Z,14.82
2017-10-05T23:08:29.169Z,14.70
2017-10-05T23:10:56.701Z,14.52
2017-10-05T23:13:24.218Z,14.64
2017-10-05T23:15:51.787Z,14.54
2017-10-05T23:18:19.302Z,14.17
2017-10-05T23:20:46.835Z,14.24
2017-10-05T23:23:14.391Z,14.09
2017-10-05T23:25:41.929Z,13.93
2017-10-05T23:28:09.684Z,14.06
2017-10-05T23:30:37.262Z,14.20
2017-10-05T23:33:05.160Z,14.23
2017-10-05T23:35:32.702Z,14.06
2017-10-05T23:38:00.245Z,13.49
2017-10-05T23:40:27.769Z,13.63
2017-10-05T23:42:55.287Z,13.64
2017-10-05T23:45:22.882Z,13.77
2017-10-05T23:47:50.405Z,13.71
2017-10-05T23:50:17.985Z,13.79
2017-10-05T23:52:45.561Z,13.36
2017-10-05T23:55:13.098Z,13.52
2017-10-05T23:57:40.622Z,13.47
